Meckling, South Dakota
Current Conditions -  °F | °C
As of 11:55 AM on Tuesday 21 Oct 2014 (Local Time) from KYKN Reporting Station
Clear Clear  
Wind Chill: 68°   Ceiling: Unl
Heat Index: 68°   Visibility: 10mi
Dew Point: 46°   Wind: 15mph
Humidity: 46%   Direction: 150°SSE
Pressure: 30.03"   Gusts: NA
Location:  42.84°N, 97.07°W
Report Text: KYKN 211655Z AUTO 15013KT 10SM CLR 20/08 A3003 RMK AO1
Loading
Personal Weather Stations






























Interactive Weather Map
Tropical Storm Tracking
New forecast layout! Learn more

10-Day Weather Forecast

Advertisements
Track Severe Weather on mobile